Disclaimer

Please do not use the information listed here in-flight or in-navigation, as they are not provided to us by the airports but are provided by volunteers, so they might be outdated.

Search


Regions


Airport information page

Radio informations:
VOLMET - 129.375 MHz
Automatic Terminal Information Service (ATIS) - 126.2 MHz
Approach (APP) - 124.6 MHz

Airport informations:
Latitude: 43° 26' 59.74" N
Longitude: 039° 57' 23.72" E
Elevation: 89 feet - 27 meters
Operating hours: 24 hour operations
Operating agency: Civil government, landing fees and diplomatic clearance may be required
Timezone: UTC+3(+4DT) - Last Sunday in March to last Sunday in October
Fuel: N/A

Runway information:
02/20 - 7218 x 161 feet< - >2200 x 49 meters
06/24 - 9482 x 164 feet< - >2890 x 50 meters

Recent METARs:
URSS 211600Z 04003MPS 9999 OVC028 11/08 Q1015 R02/090070 R06/090070 NOSIG RMK R06/08003MPS MT OBSC QFE760
URSS 211630Z 04002MPS 9999 OVC028 11/08 Q1015 R02/090070 R06/090070 NOSIG RMK R06/06002MPS MT OBSC QFE760
URSS 211700Z 04003MPS 9999 OVC026 11/08 Q1015 R02/090070 R06/090070 NOSIG RMK R06/08003MPS MT OBSC QFE760

Airport on the map: